sensor_id;sensor_type;location;lat;lon;timestamp;pressure;altitude;pressure_sealevel;temperature;humidity
31183;BME280;17813;0.000;0.000;2023-09-07T00:00:45;100035.84;;;13.19;87.61
31183;BME280;17813;0.000;0.000;2023-09-07T00:03:19;100034.25;;;13.17;87.97
31183;BME280;17813;0.000;0.000;2023-09-07T00:05:51;100036.06;;;13.16;87.84
31183;BME280;17813;0.000;0.000;2023-09-07T00:08:24;100040.41;;;13.03;88.39
31183;BME280;17813;0.000;0.000;2023-09-07T00:10:52;100038.47;;;12.91;88.81
31183;BME280;17813;0.000;0.000;2023-09-07T00:13:27;100034.97;;;12.91;88.73
31183;BME280;17813;0.000;0.000;2023-09-07T00:16:03;100038.56;;;12.89;87.61
31183;BME280;17813;0.000;0.000;2023-09-07T00:18:45;100040.09;;;12.94;87.19
31183;BME280;17813;0.000;0.000;2023-09-07T00:21:17;100043.31;;;12.99;86.78
31183;BME280;17813;0.000;0.000;2023-09-07T00:23:53;100042.75;;;12.94;87.29
31183;BME280;17813;0.000;0.000;2023-09-07T00:26:35;100038.66;;;12.88;87.40
31183;BME280;17813;0.000;0.000;2023-09-07T00:29:08;100037.06;;;12.85;87.21
31183;BME280;17813;0.000;0.000;2023-09-07T00:31:53;100041.06;;;12.78;87.79
31183;BME280;17813;0.000;0.000;2023-09-07T00:34:21;100043.13;;;12.73;88.94
31183;BME280;17813;0.000;0.000;2023-09-07T00:36:55;100043.91;;;12.75;89.25
31183;BME280;17813;0.000;0.000;2023-09-07T00:39:27;100041.16;;;12.77;88.85
31183;BME280;17813;0.000;0.000;2023-09-07T00:41:59;100036.78;;;12.76;88.63
31183;BME280;17813;0.000;0.000;2023-09-07T00:44:35;100042.94;;;12.76;88.16
31183;BME280;17813;0.000;0.000;2023-09-07T00:47:21;100037.16;;;12.70;88.55
31183;BME280;17813;0.000;0.000;2023-09-07T00:49:48;100039.16;;;12.80;88.00
31183;BME280;17813;0.000;0.000;2023-09-07T00:52:20;100033.44;;;12.86;87.47
31183;BME280;17813;0.000;0.000;2023-09-07T00:54:51;100041.34;;;12.88;87.43
31183;BME280;17813;0.000;0.000;2023-09-07T00:57:18;100051.03;;;12.89;87.26
31183;BME280;17813;0.000;0.000;2023-09-07T00:59:48;100044.66;;;12.92;86.86
31183;BME280;17813;0.000;0.000;2023-09-07T01:02:20;100031.06;;;12.82;87.10
31183;BME280;17813;0.000;0.000;2023-09-07T01:04:52;100044.28;;;12.83;87.10
31183;BME280;17813;0.000;0.000;2023-09-07T01:07:46;100046.56;;;12.75;87.26
31183;BME280;17813;0.000;0.000;2023-09-07T01:10:24;100038.00;;;12.84;86.86
31183;BME280;17813;0.000;0.000;2023-09-07T01:12:51;100028.69;;;12.77;86.53
31183;BME280;17813;0.000;0.000;2023-09-07T01:15:18;100039.72;;;12.71;86.76
31183;BME280;17813;0.000;0.000;2023-09-07T01:17:51;100022.88;;;12.71;86.77
31183;BME280;17813;0.000;0.000;2023-09-07T01:20:19;100028.97;;;12.59;87.17
31183;BME280;17813;0.000;0.000;2023-09-07T01:22:47;100026.59;;;12.54;86.91
31183;BME280;17813;0.000;0.000;2023-09-07T01:25:18;100026.38;;;12.43;87.29
31183;BME280;17813;0.000;0.000;2023-09-07T01:27:58;100034.16;;;12.32;87.46
31183;BME280;17813;0.000;0.000;2023-09-07T01:30:28;100022.94;;;12.27;87.34
31183;BME280;17813;0.000;0.000;2023-09-07T01:32:55;100020.66;;;12.20;87.26
31183;BME280;17813;0.000;0.000;2023-09-07T01:35:40;100029.00;;;12.14;87.93
31183;BME280;17813;0.000;0.000;2023-09-07T01:38:07;100026.16;;;12.17;87.96
31183;BME280;17813;0.000;0.000;2023-09-07T01:40:34;100031.19;;;12.22;87.75
31183;BME280;17813;0.000;0.000;2023-09-07T01:43:07;100033.94;;;12.20;88.44
31183;BME280;17813;0.000;0.000;2023-09-07T01:45:40;100036.13;;;12.14;89.04
31183;BME280;17813;0.000;0.000;2023-09-07T01:48:10;100035.34;;;12.12;88.44
31183;BME280;17813;0.000;0.000;2023-09-07T01:50:42;100036.19;;;12.12;88.46
31183;BME280;17813;0.000;0.000;2023-09-07T01:53:16;100031.25;;;12.06;88.61
31183;BME280;17813;0.000;0.000;2023-09-07T01:55:47;100037.00;;;11.99;89.01
31183;BME280;17813;0.000;0.000;2023-09-07T01:58:14;100043.28;;;11.98;88.75
31183;BME280;17813;0.000;0.000;2023-09-07T02:00:46;100045.94;;;11.98;89.17
31183;BME280;17813;0.000;0.000;2023-09-07T02:03:13;100042.41;;;11.97;89.07
31183;BME280;17813;0.000;0.000;2023-09-07T02:05:46;100038.81;;;11.98;89.19
31183;BME280;17813;0.000;0.000;2023-09-07T02:08:26;100035.41;;;11.96;88.99
31183;BME280;17813;0.000;0.000;2023-09-07T02:10:59;100035.66;;;11.91;89.17
31183;BME280;17813;0.000;0.000;2023-09-07T02:13:27;100034.81;;;11.91;89.13
31183;BME280;17813;0.000;0.000;2023-09-07T02:16:07;100032.31;;;11.88;89.09
31183;BME280;17813;0.000;0.000;2023-09-07T02:18:45;100042.19;;;11.86;89.46
31183;BME280;17813;0.000;0.000;2023-09-07T02:21:29;100038.75;;;11.84;89.84
31183;BME280;17813;0.000;0.000;2023-09-07T02:24:00;100039.03;;;11.79;90.00
31183;BME280;17813;0.000;0.000;2023-09-07T02:26:34;100037.16;;;11.81;90.38
31183;BME280;17813;0.000;0.000;2023-09-07T02:29:19;100037.31;;;11.78;90.45
31183;BME280;17813;0.000;0.000;2023-09-07T02:32:09;100045.28;;;11.78;89.90
31183;BME280;17813;0.000;0.000;2023-09-07T02:34:36;100036.78;;;11.87;89.14
31183;BME280;17813;0.000;0.000;2023-09-07T02:37:24;100037.47;;;11.91;89.23
31183;BME280;17813;0.000;0.000;2023-09-07T02:39:55;100037.78;;;12.01;88.28
31183;BME280;17813;0.000;0.000;2023-09-07T02:42:28;100041.88;;;12.06;88.03
31183;BME280;17813;0.000;0.000;2023-09-07T02:44:56;100041.03;;;12.06;87.71
31183;BME280;17813;0.000;0.000;2023-09-07T02:47:28;100048.22;;;12.04;87.75
31183;BME280;17813;0.000;0.000;2023-09-07T02:50:01;100041.84;;;11.92;88.15
31183;BME280;17813;0.000;0.000;2023-09-07T02:52:49;100053.59;;;11.88;88.50
31183;BME280;17813;0.000;0.000;2023-09-07T02:55:20;100040.97;;;11.91;88.83
31183;BME280;17813;0.000;0.000;2023-09-07T02:57:47;100044.50;;;11.92;88.70
31183;BME280;17813;0.000;0.000;2023-09-07T03:00:19;100049.91;;;11.90;89.00
31183;BME280;17813;0.000;0.000;2023-09-07T03:02:46;100046.03;;;11.96;88.32
31183;BME280;17813;0.000;0.000;2023-09-07T03:05:20;100039.69;;;11.99;87.55
31183;BME280;17813;0.000;0.000;2023-09-07T03:08:10;100046.88;;;11.97;87.72
31183;BME280;17813;0.000;0.000;2023-09-07T03:10:38;100042.09;;;11.87;88.09
31183;BME280;17813;0.000;0.000;2023-09-07T03:13:06;100048.81;;;11.79;88.81
31183;BME280;17813;0.000;0.000;2023-09-07T03:15:48;100042.00;;;11.73;89.13
31183;BME280;17813;0.000;0.000;2023-09-07T03:18:15;100048.03;;;11.61;89.62
31183;BME280;17813;0.000;0.000;2023-09-07T03:20:42;100038.78;;;11.52;89.58
31183;BME280;17813;0.000;0.000;2023-09-07T03:23:14;100047.25;;;11.43;90.14
31183;BME280;17813;0.000;0.000;2023-09-07T03:25:46;100049.31;;;11.38;90.00
31183;BME280;17813;0.000;0.000;2023-09-07T03:28:14;100051.53;;;11.30;90.37
31183;BME280;17813;0.000;0.000;2023-09-07T03:30:59;100055.31;;;11.26;90.77
31183;BME280;17813;0.000;0.000;2023-09-07T03:33:35;100052.91;;;11.21;91.28
31183;BME280;17813;0.000;0.000;2023-09-07T03:36:02;100046.41;;;11.27;90.71
31183;BME280;17813;0.000;0.000;2023-09-07T03:38:29;100047.78;;;11.34;90.34
31183;BME280;17813;0.000;0.000;2023-09-07T03:41:14;100054.19;;;11.30;90.08
31183;BME280;17813;0.000;0.000;2023-09-07T03:43:46;100038.34;;;11.28;90.23
31183;BME280;17813;0.000;0.000;2023-09-07T03:46:13;100051.63;;;11.28;90.04
31183;BME280;17813;0.000;0.000;2023-09-07T03:48:58;100053.59;;;11.25;90.16
31183;BME280;17813;0.000;0.000;2023-09-07T03:51:47;100054.47;;;11.25;90.36
31183;BME280;17813;0.000;0.000;2023-09-07T03:54:14;100048.97;;;11.28;90.22
31183;BME280;17813;0.000;0.000;2023-09-07T03:57:02;100052.06;;;11.21;90.48
31183;BME280;17813;0.000;0.000;2023-09-07T03:59:29;100050.88;;;11.26;89.99
31183;BME280;17813;0.000;0.000;2023-09-07T04:02:01;100067.06;;;11.38;89.13
31183;BME280;17813;0.000;0.000;2023-09-07T04:04:34;100061.06;;;11.34;88.68
31183;BME280;17813;0.000;0.000;2023-09-07T04:07:23;100063.63;;;11.20;88.80
31183;BME280;17813;0.000;0.000;2023-09-07T04:09:51;100066.78;;;11.11;89.31
31183;BME280;17813;0.000;0.000;2023-09-07T04:12:38;100058.53;;;11.00;89.76
31183;BME280;17813;0.000;0.000;2023-09-07T04:15:14;100057.53;;;11.02;89.16
31183;BME280;17813;0.000;0.000;2023-09-07T04:17:43;100055.72;;;11.03;89.32
31183;BME280;17813;0.000;0.000;2023-09-07T04:20:17;100046.38;;;10.95;89.51
31183;BME280;17813;0.000;0.000;2023-09-07T04:22:55;100055.28;;;10.94;89.60
31183;BME280;17813;0.000;0.000;2023-09-07T04:25:22;100059.56;;;10.97;89.24
31183;BME280;17813;0.000;0.000;2023-09-07T04:27:49;100059.66;;;10.95;89.23
31183;BME280;17813;0.000;0.000;2023-09-07T04:30:16;100055.13;;;10.98;88.85
31183;BME280;17813;0.000;0.000;2023-09-07T04:32:49;100053.72;;;10.90;89.45
31183;BME280;17813;0.000;0.000;2023-09-07T04:35:16;100059.13;;;10.89;89.75
31183;BME280;17813;0.000;0.000;2023-09-07T04:37:43;100066.31;;;10.87;89.99
31183;BME280;17813;0.000;0.000;2023-09-07T04:40:18;100067.16;;;10.87;89.88
31183;BME280;17813;0.000;0.000;2023-09-07T04:42:52;100066.38;;;10.85;90.18
31183;BME280;17813;0.000;0.000;2023-09-07T04:45:28;100066.06;;;10.91;90.31
31183;BME280;17813;0.000;0.000;2023-09-07T04:48:03;100068.38;;;10.98;89.85
31183;BME280;17813;0.000;0.000;2023-09-07T04:50:33;100064.47;;;11.05;89.75
31183;BME280;17813;0.000;0.000;2023-09-07T04:53:05;100070.03;;;11.16;89.65
31183;BME280;17813;0.000;0.000;2023-09-07T04:55:38;100072.28;;;11.23;88.82
31183;BME280;17813;0.000;0.000;2023-09-07T04:58:07;100063.81;;;11.33;88.87
31183;BME280;17813;0.000;0.000;2023-09-07T05:01:07;100065.44;;;11.35;88.63
31183;BME280;17813;0.000;0.000;2023-09-07T05:03:37;100058.75;;;11.44;88.59
31183;BME280;17813;0.000;0.000;2023-09-07T05:06:07;100066.28;;;11.51;88.44
31183;BME280;17813;0.000;0.000;2023-09-07T05:09:05;100064.22;;;11.56;88.46
31183;BME280;17813;0.000;0.000;2023-09-07T05:11:32;100055.06;;;11.62;88.79
31183;BME280;17813;0.000;0.000;2023-09-07T05:14:03;100070.03;;;11.63;88.49
31183;BME280;17813;0.000;0.000;2023-09-07T05:16:31;100062.34;;;11.58;88.46
31183;BME280;17813;0.000;0.000;2023-09-07T05:18:58;100066.88;;;11.56;88.16
31183;BME280;17813;0.000;0.000;2023-09-07T05:21:26;100063.97;;;11.45;89.19
31183;BME280;17813;0.000;0.000;2023-09-07T05:23:53;100065.00;;;11.43;89.17
31183;BME280;17813;0.000;0.000;2023-09-07T05:26:23;100056.19;;;11.42;89.34
31183;BME280;17813;0.000;0.000;2023-09-07T05:28:52;100061.16;;;11.48;89.45
31183;BME280;17813;0.000;0.000;2023-09-07T05:31:26;100067.47;;;11.46;89.97
31183;BME280;17813;0.000;0.000;2023-09-07T05:33:54;100076.22;;;11.64;89.09
31183;BME280;17813;0.000;0.000;2023-09-07T05:36:22;100071.31;;;11.72;89.27
31183;BME280;17813;0.000;0.000;2023-09-07T05:38:51;100081.47;;;11.81;88.89
31183;BME280;17813;0.000;0.000;2023-09-07T05:41:36;100074.00;;;11.87;89.30
31183;BME280;17813;0.000;0.000;2023-09-07T05:44:03;100081.69;;;11.92;89.03
31183;BME280;17813;0.000;0.000;2023-09-07T05:46:30;100076.38;;;11.92;89.65
31183;BME280;17813;0.000;0.000;2023-09-07T05:48:57;100086.50;;;12.01;89.84
31183;BME280;17813;0.000;0.000;2023-09-07T05:51:24;100083.97;;;12.14;89.25
31183;BME280;17813;0.000;0.000;2023-09-07T05:54:09;100076.91;;;12.29;89.48
31183;BME280;17813;0.000;0.000;2023-09-07T05:56:37;100078.56;;;12.45;88.99
31183;BME280;17813;0.000;0.000;2023-09-07T05:59:04;100080.41;;;12.73;88.78
31183;BME280;17813;0.000;0.000;2023-09-07T06:01:35;100073.78;;;13.78;86.85
31183;BME280;17813;0.000;0.000;2023-09-07T06:04:04;100077.94;;;15.12;81.61
31183;BME280;17813;0.000;0.000;2023-09-07T06:06:33;100071.41;;;16.37;76.46
31183;BME280;17813;0.000;0.000;2023-09-07T06:09:00;100069.47;;;17.42;71.92
31183;BME280;17813;0.000;0.000;2023-09-07T06:11:28;100062.59;;;18.25;68.06
31183;BME280;17813;0.000;0.000;2023-09-07T06:13:56;100069.34;;;19.03;65.77
31183;BME280;17813;0.000;0.000;2023-09-07T06:16:25;100064.25;;;19.90;62.92
31183;BME280;17813;0.000;0.000;2023-09-07T06:18:57;100059.97;;;20.74;60.24
31183;BME280;17813;0.000;0.000;2023-09-07T06:21:24;100067.50;;;21.82;57.93
31183;BME280;17813;0.000;0.000;2023-09-07T06:23:53;100049.34;;;22.63;55.69
31183;BME280;17813;0.000;0.000;2023-09-07T06:26:20;100068.66;;;23.46;53.24
31183;BME280;17813;0.000;0.000;2023-09-07T06:28:47;100062.31;;;23.63;50.31
31183;BME280;17813;0.000;0.000;2023-09-07T06:31:15;100054.34;;;24.28;50.29
31183;BME280;17813;0.000;0.000;2023-09-07T06:33:42;100049.56;;;24.71;48.49
31183;BME280;17813;0.000;0.000;2023-09-07T06:36:15;100056.66;;;25.52;47.06
31183;BME280;17813;0.000;0.000;2023-09-07T06:38:44;100060.69;;;25.95;45.81
31183;BME280;17813;0.000;0.000;2023-09-07T06:41:11;100050.28;;;26.30;44.33
31183;BME280;17813;0.000;0.000;2023-09-07T06:43:39;100049.03;;;26.78;43.88
31183;BME280;17813;0.000;0.000;2023-09-07T06:46:08;100046.16;;;27.38;42.58
31183;BME280;17813;0.000;0.000;2023-09-07T06:48:35;100055.03;;;28.12;41.05
31183;BME280;17813;0.000;0.000;2023-09-07T06:51:08;100050.91;;;28.38;40.08
31183;BME280;17813;0.000;0.000;2023-09-07T06:53:36;100046.97;;;28.90;38.99
31183;BME280;17813;0.000;0.000;2023-09-07T06:56:22;100053.06;;;29.20;38.82
31183;BME280;17813;0.000;0.000;2023-09-07T06:58:50;100055.03;;;29.32;37.85
31183;BME280;17813;0.000;0.000;2023-09-07T07:01:19;100062.00;;;29.89;38.17
31183;BME280;17813;0.000;0.000;2023-09-07T07:03:46;100051.63;;;30.52;36.83
31183;BME280;17813;0.000;0.000;2023-09-07T07:06:13;100053.56;;;30.58;35.75
31183;BME280;17813;0.000;0.000;2023-09-07T07:08:45;100054.56;;;30.44;35.27
31183;BME280;17813;0.000;0.000;2023-09-07T07:11:16;100056.25;;;31.31;34.57
31183;BME280;17813;0.000;0.000;2023-09-07T07:13:44;100058.41;;;31.80;34.18
31183;BME280;17813;0.000;0.000;2023-09-07T07:16:11;100054.84;;;32.11;33.56
31183;BME280;17813;0.000;0.000;2023-09-07T07:18:39;100049.91;;;32.58;32.87
31183;BME280;17813;0.000;0.000;2023-09-07T07:21:08;100057.75;;;32.54;32.00
31183;BME280;17813;0.000;0.000;2023-09-07T07:23:40;100051.22;;;32.74;32.17
31183;BME280;17813;0.000;0.000;2023-09-07T07:26:10;100055.03;;;32.79;31.61
31183;BME280;17813;0.000;0.000;2023-09-07T07:28:37;100051.41;;;32.54;31.26
31183;BME280;17813;0.000;0.000;2023-09-07T07:31:09;100050.81;;;32.77;30.98
31183;BME280;17813;0.000;0.000;2023-09-07T07:33:36;100053.91;;;33.05;31.59
31183;BME280;17813;0.000;0.000;2023-09-07T07:36:06;100052.28;;;33.59;31.65
31183;BME280;17813;0.000;0.000;2023-09-07T07:38:33;100060.00;;;34.47;29.72
31183;BME280;17813;0.000;0.000;2023-09-07T07:41:03;100060.06;;;33.99;29.34
31183;BME280;17813;0.000;0.000;2023-09-07T07:43:32;100057.34;;;34.10;29.32
31183;BME280;17813;0.000;0.000;2023-09-07T07:46:01;100057.91;;;34.31;29.42
31183;BME280;17813;0.000;0.000;2023-09-07T07:48:28;100058.22;;;34.76;28.69
31183;BME280;17813;0.000;0.000;2023-09-07T07:51:02;100054.41;;;34.65;29.18
31183;BME280;17813;0.000;0.000;2023-09-07T07:53:30;100061.34;;;35.50;28.54
31183;BME280;17813;0.000;0.000;2023-09-07T07:55:57;100060.44;;;35.84;28.13
31183;BME280;17813;0.000;0.000;2023-09-07T07:58:25;100060.22;;;36.59;27.20
31183;BME280;17813;0.000;0.000;2023-09-07T08:00:52;100051.50;;;36.67;26.72
31183;BME280;17813;0.000;0.000;2023-09-07T08:03:38;100056.72;;;36.35;27.10
31183;BME280;17813;0.000;0.000;2023-09-07T08:06:05;100062.28;;;36.24;26.99
31183;BME280;17813;0.000;0.000;2023-09-07T08:08:33;100058.19;;;36.71;26.84
31183;BME280;17813;0.000;0.000;2023-09-07T08:11:00;100046.81;;;37.40;26.48
31183;BME280;17813;0.000;0.000;2023-09-07T08:13:33;100047.66;;;37.62;25.72
31183;BME280;17813;0.000;0.000;2023-09-07T08:16:04;100036.41;;;38.18;25.17
31183;BME280;17813;0.000;0.000;2023-09-07T08:18:35;100034.06;;;38.64;25.48
31183;BME280;17813;0.000;0.000;2023-09-07T08:21:05;100041.94;;;39.14;24.97
31183;BME280;17813;0.000;0.000;2023-09-07T08:23:32;100039.66;;;39.53;25.41
31183;BME280;17813;0.000;0.000;2023-09-07T08:26:01;100037.38;;;39.45;23.94
31183;BME280;17813;0.000;0.000;2023-09-07T08:28:29;100031.41;;;39.73;24.93
31183;BME280;17813;0.000;0.000;2023-09-07T08:30:57;100030.88;;;39.76;23.87
31183;BME280;17813;0.000;0.000;2023-09-07T08:33:27;100027.34;;;40.06;24.39
31183;BME280;17813;0.000;0.000;2023-09-07T08:35:56;100028.16;;;39.92;24.00
31183;BME280;17813;0.000;0.000;2023-09-07T08:38:27;100032.66;;;40.28;23.78
31183;BME280;17813;0.000;0.000;2023-09-07T08:40:55;100025.72;;;40.56;23.54
31183;BME280;17813;0.000;0.000;2023-09-07T08:43:29;100019.91;;;40.83;23.52
31183;BME280;17813;0.000;0.000;2023-09-07T08:46:19;100019.19;;;41.42;22.94
31183;BME280;17813;0.000;0.000;2023-09-07T08:48:55;100024.69;;;42.17;22.12
31183;BME280;17813;0.000;0.000;2023-09-07T08:51:30;100025.22;;;41.59;22.00
31183;BME280;17813;0.000;0.000;2023-09-07T08:53:59;100019.31;;;40.96;21.60
31183;BME280;17813;0.000;0.000;2023-09-07T08:56:28;100022.75;;;41.53;22.72
31183;BME280;17813;0.000;0.000;2023-09-07T08:58:58;100011.88;;;42.16;22.80
31183;BME280;17813;0.000;0.000;2023-09-07T09:01:25;100018.00;;;42.81;21.67
31183;BME280;17813;0.000;0.000;2023-09-07T09:03:52;100023.56;;;42.86;21.56
31183;BME280;17813;0.000;0.000;2023-09-07T09:06:21;100022.56;;;43.24;21.50
31183;BME280;17813;0.000;0.000;2023-09-07T09:08:56;100023.56;;;43.57;21.10
31183;BME280;17813;0.000;0.000;2023-09-07T09:11:24;100019.78;;;43.91;20.62
31183;BME280;17813;0.000;0.000;2023-09-07T09:14:04;100013.16;;;44.24;20.48
31183;BME280;17813;0.000;0.000;2023-09-07T09:16:36;100020.41;;;44.25;21.34
31183;BME280;17813;0.000;0.000;2023-09-07T09:19:04;100013.84;;;44.68;20.56
31183;BME280;17813;0.000;0.000;2023-09-07T09:21:32;100015.72;;;44.72;20.43
31183;BME280;17813;0.000;0.000;2023-09-07T09:23:59;100021.53;;;44.43;19.85
31183;BME280;17813;0.000;0.000;2023-09-07T09:26:27;100021.75;;;44.28;21.24
31183;BME280;17813;0.000;0.000;2023-09-07T09:28:57;100022.91;;;44.27;20.06
31183;BME280;17813;0.000;0.000;2023-09-07T09:31:31;100021.19;;;44.64;20.30
31183;BME280;17813;0.000;0.000;2023-09-07T09:34:01;100007.84;;;44.42;19.58
31183;BME280;17813;0.000;0.000;2023-09-07T09:36:41;100003.94;;;43.62;19.67
31183;BME280;17813;0.000;0.000;2023-09-07T09:39:09;100000.16;;;43.77;21.02
31183;BME280;17813;0.000;0.000;2023-09-07T09:41:36;100000.44;;;43.76;19.77
31183;BME280;17813;0.000;0.000;2023-09-07T09:44:06;99998.66;;;43.61;20.82
31183;BME280;17813;0.000;0.000;2023-09-07T09:46:53;99994.56;;;43.77;20.73
31183;BME280;17813;0.000;0.000;2023-09-07T09:49:43;99995.16;;;43.93;21.39
31183;BME280;17813;0.000;0.000;2023-09-07T09:52:36;99990.25;;;43.18;20.09
31183;BME280;17813;0.000;0.000;2023-09-07T09:55:14;99989.84;;;43.06;20.16
31183;BME280;17813;0.000;0.000;2023-09-07T09:57:42;99983.81;;;42.70;20.29
31183;BME280;17813;0.000;0.000;2023-09-07T10:00:09;99977.50;;;42.59;20.40
31183;BME280;17813;0.000;0.000;2023-09-07T10:02:55;99982.91;;;42.12;20.40
31183;BME280;17813;0.000;0.000;2023-09-07T10:05:25;99978.69;;;42.19;20.78
31183;BME280;17813;0.000;0.000;2023-09-07T10:07:59;99980.50;;;42.34;21.80
31183;BME280;17813;0.000;0.000;2023-09-07T10:10:35;99979.91;;;42.71;21.55
31183;BME280;17813;0.000;0.000;2023-09-07T10:13:03;99975.84;;;43.35;20.74
31183;BME280;17813;0.000;0.000;2023-09-07T10:15:32;99973.03;;;43.78;19.04
31183;BME280;17813;0.000;0.000;2023-09-07T10:18:15;99964.81;;;43.25;17.35
31183;BME280;17813;0.000;0.000;2023-09-07T10:20:56;99967.06;;;42.70;19.02
31183;BME280;17813;0.000;0.000;2023-09-07T10:23:45;99972.91;;;42.74;19.57
31183;BME280;17813;0.000;0.000;2023-09-07T10:26:14;99956.59;;;42.28;17.57
31183;BME280;17813;0.000;0.000;2023-09-07T10:28:43;99957.72;;;41.28;18.40
31183;BME280;17813;0.000;0.000;2023-09-07T10:31:19;99957.34;;;40.30;20.41
31183;BME280;17813;0.000;0.000;2023-09-07T10:33:46;99959.09;;;39.38;20.07
31183;BME280;17813;0.000;0.000;2023-09-07T10:36:25;99962.81;;;39.64;20.03
31183;BME280;17813;0.000;0.000;2023-09-07T10:38:55;99954.28;;;40.31;20.49
31183;BME280;17813;0.000;0.000;2023-09-07T10:41:28;99949.56;;;40.62;20.20
31183;BME280;17813;0.000;0.000;2023-09-07T10:43:57;99948.44;;;40.68;19.27
31183;BME280;17813;0.000;0.000;2023-09-07T10:46:42;99952.81;;;39.58;20.27
31183;BME280;17813;0.000;0.000;2023-09-07T10:49:11;99950.16;;;39.20;23.00
31183;BME280;17813;0.000;0.000;2023-09-07T10:51:45;99944.94;;;39.34;22.29
31183;BME280;17813;0.000;0.000;2023-09-07T10:54:22;99950.84;;;39.48;22.20
31183;BME280;17813;0.000;0.000;2023-09-07T10:56:51;99947.84;;;39.02;21.44
31183;BME280;17813;0.000;0.000;2023-09-07T10:59:19;99936.03;;;38.80;21.98
31183;BME280;17813;0.000;0.000;2023-09-07T11:01:46;99943.75;;;38.04;21.26
31183;BME280;17813;0.000;0.000;2023-09-07T11:04:16;99936.47;;;36.78;23.49
31183;BME280;17813;0.000;0.000;2023-09-07T11:06:48;99927.78;;;36.53;24.20
31183;BME280;17813;0.000;0.000;2023-09-07T11:09:20;99930.69;;;36.63;24.97
31183;BME280;17813;0.000;0.000;2023-09-07T11:11:49;99925.09;;;36.58;23.39
31183;BME280;17813;0.000;0.000;2023-09-07T11:14:16;99926.66;;;36.03;23.35
31183;BME280;17813;0.000;0.000;2023-09-07T11:16:46;99941.28;;;35.19;24.62
31183;BME280;17813;0.000;0.000;2023-09-07T11:19:14;99935.00;;;34.83;26.77
31183;BME280;17813;0.000;0.000;2023-09-07T11:21:45;99926.84;;;34.88;26.09
31183;BME280;17813;0.000;0.000;2023-09-07T11:24:14;99932.34;;;34.65;25.69
31183;BME280;17813;0.000;0.000;2023-09-07T11:26:48;99934.66;;;33.91;26.32
31183;BME280;17813;0.000;0.000;2023-09-07T11:29:16;99923.28;;;33.88;27.68
31183;BME280;17813;0.000;0.000;2023-09-07T11:31:47;99923.28;;;33.69;26.21
31183;BME280;17813;0.000;0.000;2023-09-07T11:34:16;99920.75;;;33.56;28.81
31183;BME280;17813;0.000;0.000;2023-09-07T11:36:47;99914.31;;;33.62;27.24
31183;BME280;17813;0.000;0.000;2023-09-07T11:39:18;99911.69;;;33.67;27.13
31183;BME280;17813;0.000;0.000;2023-09-07T11:41:46;99913.91;;;33.47;27.97
31183;BME280;17813;0.000;0.000;2023-09-07T11:44:13;99915.63;;;33.30;27.85
31183;BME280;17813;0.000;0.000;2023-09-07T11:46:41;99906.72;;;33.28;28.69
31183;BME280;17813;0.000;0.000;2023-09-07T11:49:08;99912.94;;;32.86;27.87
31183;BME280;17813;0.000;0.000;2023-09-07T11:51:38;99906.59;;;32.68;28.88
31183;BME280;17813;0.000;0.000;2023-09-07T11:54:07;99909.44;;;32.79;28.49
31183;BME280;17813;0.000;0.000;2023-09-07T11:56:34;99898.59;;;33.03;28.67
31183;BME280;17813;0.000;0.000;2023-09-07T11:59:09;99896.75;;;33.15;29.32
31183;BME280;17813;0.000;0.000;2023-09-07T12:01:37;99899.88;;;33.18;29.29
31183;BME280;17813;0.000;0.000;2023-09-07T12:04:07;99897.59;;;33.15;27.86
31183;BME280;17813;0.000;0.000;2023-09-07T12:06:36;99892.72;;;32.99;28.50
31183;BME280;17813;0.000;0.000;2023-09-07T12:09:05;99897.16;;;33.00;28.93
31183;BME280;17813;0.000;0.000;2023-09-07T12:11:42;99886.97;;;33.19;27.74
31183;BME280;17813;0.000;0.000;2023-09-07T12:14:10;99880.78;;;33.23;26.64
31183;BME280;17813;0.000;0.000;2023-09-07T12:16:38;99888.03;;;33.18;26.98
31183;BME280;17813;0.000;0.000;2023-09-07T12:19:05;99879.28;;;33.09;26.82
31183;BME280;17813;0.000;0.000;2023-09-07T12:21:36;99879.75;;;33.06;26.40
31183;BME280;17813;0.000;0.000;2023-09-07T12:24:03;99876.69;;;32.96;28.61
31183;BME280;17813;0.000;0.000;2023-09-07T12:26:44;99875.31;;;32.69;26.95
31183;BME280;17813;0.000;0.000;2023-09-07T12:29:11;99878.81;;;32.57;27.11
31183;BME280;17813;0.000;0.000;2023-09-07T12:31:39;99871.88;;;32.73;27.40
31183;BME280;17813;0.000;0.000;2023-09-07T12:34:07;99873.63;;;32.68;27.09
31183;BME280;17813;0.000;0.000;2023-09-07T12:36:45;99883.25;;;32.58;28.33
31183;BME280;17813;0.000;0.000;2023-09-07T12:39:23;99874.31;;;32.63;28.80
31183;BME280;17813;0.000;0.000;2023-09-07T12:41:50;99869.75;;;32.75;27.50
31183;BME280;17813;0.000;0.000;2023-09-07T12:44:17;99864.97;;;32.89;28.04
31183;BME280;17813;0.000;0.000;2023-09-07T12:47:03;99863.72;;;32.48;27.12
31183;BME280;17813;0.000;0.000;2023-09-07T12:49:31;99861.81;;;32.49;27.09
31183;BME280;17813;0.000;0.000;2023-09-07T12:51:58;99861.22;;;32.22;26.65
31183;BME280;17813;0.000;0.000;2023-09-07T12:54:29;99857.81;;;32.02;26.80
31183;BME280;17813;0.000;0.000;2023-09-07T12:57:02;99856.84;;;32.14;28.27
31183;BME280;17813;0.000;0.000;2023-09-07T12:59:41;99852.97;;;32.22;26.89
31183;BME280;17813;0.000;0.000;2023-09-07T13:02:15;99858.69;;;32.20;26.68
31183;BME280;17813;0.000;0.000;2023-09-07T13:04:58;99851.72;;;32.24;26.93
31183;BME280;17813;0.000;0.000;2023-09-07T13:07:25;99853.81;;;32.22;26.95
31183;BME280;17813;0.000;0.000;2023-09-07T13:09:54;99847.94;;;32.19;26.89
31183;BME280;17813;0.000;0.000;2023-09-07T13:12:23;99843.53;;;31.93;26.72
31183;BME280;17813;0.000;0.000;2023-09-07T13:14:57;99847.63;;;31.84;26.87
31183;BME280;17813;0.000;0.000;2023-09-07T13:17:24;99847.28;;;31.98;26.86
31183;BME280;17813;0.000;0.000;2023-09-07T13:19:51;99847.91;;;32.01;27.81
31183;BME280;17813;0.000;0.000;2023-09-07T13:22:22;99842.97;;;31.84;27.50
31183;BME280;17813;0.000;0.000;2023-09-07T13:24:55;99843.22;;;31.83;29.32
31183;BME280;17813;0.000;0.000;2023-09-07T13:27:22;99840.34;;;31.71;27.91